createdAt,value
2023-02-11T00:00:04.957Z,397.00
2023-02-11T00:00:14.996Z,397.00
2023-02-11T00:00:24.970Z,398.00
2023-02-11T00:00:35.074Z,397.00
2023-02-11T00:00:45.022Z,396.00
2023-02-11T00:00:55.006Z,396.00
2023-02-11T00:01:05.011Z,395.00
2023-02-11T00:01:15.035Z,396.00
2023-02-11T00:01:25.041Z,395.00
2023-02-11T00:01:35.050Z,394.00
2023-02-11T00:01:45.061Z,394.00
2023-02-11T00:01:55.060Z,394.00
2023-02-11T00:02:05.067Z,394.00
2023-02-11T00:02:15.098Z,395.00
2023-02-11T00:02:25.099Z,394.00
2023-02-11T00:02:35.147Z,394.00
2023-02-11T00:02:47.728Z,394.00
2023-02-11T00:02:55.113Z,394.00
2023-02-11T00:03:05.120Z,393.00
2023-02-11T00:03:15.190Z,392.00
2023-02-11T00:03:25.135Z,393.00
2023-02-11T00:03:35.158Z,391.00
2023-02-11T00:03:45.179Z,393.00
2023-02-11T00:03:55.108Z,393.00
2023-02-11T00:04:05.087Z,390.00
2023-02-11T00:04:15.093Z,390.00
2023-02-11T00:04:25.092Z,390.00
2023-02-11T00:04:35.092Z,391.00
2023-02-11T00:04:45.112Z,391.00
2023-02-11T00:04:55.105Z,390.00
2023-02-11T00:05:05.103Z,391.00
2023-02-11T00:05:15.104Z,389.00
2023-02-11T00:05:25.088Z,388.00
2023-02-11T00:05:35.172Z,387.00
2023-02-11T00:05:45.095Z,386.00
2023-02-11T00:05:55.094Z,385.00
2023-02-11T00:06:05.094Z,384.00
2023-02-11T00:06:15.097Z,384.00
2023-02-11T00:06:25.120Z,385.00
2023-02-11T00:06:35.094Z,386.00
2023-02-11T00:06:45.093Z,387.00
2023-02-11T00:06:55.103Z,387.00
2023-02-11T00:07:05.102Z,389.00
2023-02-11T00:07:15.110Z,390.00
2023-02-11T00:07:25.096Z,389.00
2023-02-11T00:07:35.096Z,390.00
2023-02-11T00:07:45.106Z,390.00
2023-02-11T00:07:55.106Z,390.00
2023-02-11T00:08:05.099Z,390.00
2023-02-11T00:08:15.130Z,390.00
2023-02-11T00:08:25.090Z,390.00
2023-02-11T00:08:35.090Z,389.00
2023-02-11T00:08:45.099Z,389.00
2023-02-11T00:08:55.092Z,389.00
2023-02-11T00:09:05.100Z,389.00
2023-02-11T00:09:15.096Z,388.00
2023-02-11T00:09:25.085Z,387.00
2023-02-11T00:09:35.093Z,386.00
2023-02-11T00:09:45.103Z,386.00
2023-02-11T00:09:55.096Z,386.00
2023-02-11T00:10:05.111Z,387.00
2023-02-11T00:10:15.068Z,386.00
2023-02-11T00:10:25.091Z,386.00
2023-02-11T00:10:35.071Z,386.00
2023-02-11T00:10:45.165Z,385.00
2023-02-11T00:10:55.080Z,384.00
2023-02-11T00:11:05.088Z,384.00
2023-02-11T00:11:15.093Z,384.00
2023-02-11T00:11:25.053Z,385.00
2023-02-11T00:11:35.077Z,384.00
2023-02-11T00:11:45.060Z,385.00
2023-02-11T00:11:55.071Z,385.00
2023-02-11T00:12:05.071Z,385.00
2023-02-11T00:12:15.063Z,383.00
2023-02-11T00:12:25.069Z,384.00
2023-02-11T00:12:35.071Z,385.00
2023-02-11T00:12:45.071Z,385.00
2023-02-11T00:12:55.077Z,384.00
2023-02-11T00:13:05.061Z,384.00
2023-02-11T00:13:15.080Z,384.00
2023-02-11T00:13:25.070Z,383.00
2023-02-11T00:13:35.075Z,383.00
2023-02-11T00:13:45.060Z,384.00
2023-02-11T00:13:55.115Z,384.00
2023-02-11T00:14:05.108Z,384.00
2023-02-11T00:14:15.082Z,384.00
2023-02-11T00:14:25.130Z,383.00
2023-02-11T00:14:35.129Z,383.00
2023-02-11T00:14:45.131Z,383.00
2023-02-11T00:14:55.144Z,383.00
2023-02-11T00:15:05.147Z,382.00
2023-02-11T00:15:15.157Z,383.00
2023-02-11T00:15:25.177Z,383.00
2023-02-11T00:15:35.177Z,383.00
2023-02-11T00:15:45.272Z,382.00
2023-02-11T00:15:55.203Z,382.00
2023-02-11T00:16:05.210Z,383.00
2023-02-11T00:16:15.223Z,382.00
2023-02-11T00:16:25.264Z,382.00
2023-02-11T00:16:35.334Z,383.00
2023-02-11T00:16:45.290Z,383.00
2023-02-11T00:16:55.307Z,383.00
2023-02-11T00:17:05.248Z,382.00
2023-02-11T00:17:15.252Z,383.00
2023-02-11T00:17:25.286Z,382.00
2023-02-11T00:17:35.269Z,383.00
2023-02-11T00:17:45.283Z,383.00
2023-02-11T00:17:55.296Z,384.00
2023-02-11T00:18:05.313Z,384.00
2023-02-11T00:18:15.315Z,385.00
2023-02-11T00:18:25.326Z,386.00
2023-02-11T00:18:35.328Z,386.00
2023-02-11T00:18:45.331Z,387.00
2023-02-11T00:18:55.356Z,386.00
2023-02-11T00:19:05.358Z,386.00
2023-02-11T00:19:15.347Z,386.00
2023-02-11T00:19:25.372Z,385.00
2023-02-11T00:19:35.400Z,386.00
2023-02-11T00:19:45.369Z,385.00
2023-02-11T00:19:55.418Z,383.00
2023-02-11T00:20:07.916Z,383.00
2023-02-11T00:20:15.430Z,383.00
2023-02-11T00:20:25.413Z,381.00
2023-02-11T00:20:35.423Z,382.00
2023-02-11T00:20:45.468Z,382.00
2023-02-11T00:20:55.415Z,383.00
2023-02-11T00:21:05.401Z,383.00
2023-02-11T00:21:15.389Z,384.00
2023-02-11T00:21:25.411Z,384.00
2023-02-11T00:21:35.377Z,383.00
2023-02-11T00:21:45.393Z,384.00
2023-02-11T00:21:55.403Z,384.00
2023-02-11T00:22:05.387Z,384.00
2023-02-11T00:22:15.397Z,384.00
2023-02-11T00:22:25.384Z,385.00
2023-02-11T00:22:35.392Z,384.00
2023-02-11T00:22:45.412Z,384.00
2023-02-11T00:22:55.401Z,383.00
2023-02-11T00:23:05.395Z,383.00
2023-02-11T00:23:15.405Z,383.00
2023-02-11T00:23:25.403Z,384.00
2023-02-11T00:23:35.393Z,384.00
2023-02-11T00:23:45.391Z,384.00
2023-02-11T00:23:55.388Z,384.00
2023-02-11T00:24:05.386Z,384.00
2023-02-11T00:24:15.402Z,384.00
2023-02-11T00:24:25.394Z,383.00
2023-02-11T00:24:35.392Z,382.00
2023-02-11T00:24:45.392Z,380.00
2023-02-11T00:24:55.401Z,381.00
2023-02-11T00:25:05.392Z,382.00
2023-02-11T00:25:15.405Z,382.00
2023-02-11T00:25:25.402Z,382.00
2023-02-11T00:25:35.386Z,382.00
2023-02-11T00:25:45.410Z,383.00
2023-02-11T00:25:55.416Z,383.00
2023-02-11T00:26:05.373Z,383.00
2023-02-11T00:26:15.379Z,382.00
2023-02-11T00:26:25.396Z,383.00
2023-02-11T00:26:35.404Z,383.00
2023-02-11T00:26:45.383Z,383.00
2023-02-11T00:26:55.377Z,382.00
2023-02-11T00:27:05.365Z,382.00
2023-02-11T00:27:15.379Z,381.00
2023-02-11T00:27:25.367Z,381.00
2023-02-11T00:27:35.362Z,382.00
2023-02-11T00:27:45.411Z,383.00
2023-02-11T00:27:55.405Z,382.00
2023-02-11T00:28:05.430Z,383.00
2023-02-11T00:28:15.410Z,383.00
2023-02-11T00:28:25.423Z,383.00
2023-02-11T00:28:35.409Z,382.00
2023-02-11T00:28:45.387Z,382.00
2023-02-11T00:28:55.384Z,383.00
2023-02-11T00:29:05.370Z,382.00
2023-02-11T00:29:15.383Z,382.00
2023-02-11T00:29:25.375Z,383.00
2023-02-11T00:29:35.376Z,383.00
2023-02-11T00:29:45.363Z,384.00
2023-02-11T00:29:55.380Z,383.00
2023-02-11T00:30:05.369Z,383.00
2023-02-11T00:30:15.358Z,384.00
2023-02-11T00:30:25.391Z,385.00
2023-02-11T00:30:35.484Z,384.00
2023-02-11T00:30:45.473Z,384.00
2023-02-11T00:30:55.488Z,386.00
2023-02-11T00:31:05.592Z,386.00
2023-02-11T00:31:15.501Z,385.00
2023-02-11T00:31:25.578Z,385.00
2023-02-11T00:31:35.509Z,385.00
2023-02-11T00:31:45.541Z,386.00
2023-02-11T00:31:55.562Z,386.00
2023-02-11T00:32:05.380Z,387.00
2023-02-11T00:32:15.384Z,386.00
2023-02-11T00:32:25.393Z,386.00
2023-02-11T00:32:35.406Z,386.00
2023-02-11T00:32:45.381Z,385.00
2023-02-11T00:32:55.382Z,385.00
2023-02-11T00:33:05.392Z,386.00
2023-02-11T00:33:15.372Z,384.00
2023-02-11T00:33:25.404Z,384.00
2023-02-11T00:33:35.389Z,385.00
2023-02-11T00:33:45.382Z,385.00
2023-02-11T00:33:55.386Z,386.00
2023-02-11T00:34:05.393Z,386.00
2023-02-11T00:34:15.384Z,387.00
2023-02-11T00:34:25.402Z,387.00
2023-02-11T00:34:35.380Z,387.00
2023-02-11T00:34:45.394Z,388.00
2023-02-11T00:34:55.451Z,388.00
2023-02-11T00:35:05.391Z,387.00
2023-02-11T00:35:15.400Z,386.00
2023-02-11T00:35:25.383Z,385.00
2023-02-11T00:35:35.364Z,385.00
2023-02-11T00:35:45.394Z,385.00
2023-02-11T00:35:55.378Z,387.00
2023-02-11T00:36:05.432Z,386.00
2023-02-11T00:36:15.404Z,384.00
2023-02-11T00:36:25.398Z,384.00
2023-02-11T00:36:35.366Z,383.00
2023-02-11T00:36:45.378Z,384.00
2023-02-11T00:36:55.383Z,385.00
2023-02-11T00:37:05.385Z,385.00
2023-02-11T00:37:15.363Z,385.00
2023-02-11T00:37:25.352Z,384.00
2023-02-11T00:37:35.368Z,383.00
2023-02-11T00:37:45.360Z,383.00
2023-02-11T00:37:55.362Z,383.00
2023-02-11T00:38:05.369Z,384.00
2023-02-11T00:38:15.381Z,384.00
2023-02-11T00:38:25.365Z,384.00
2023-02-11T00:38:35.355Z,385.00
2023-02-11T00:38:45.394Z,386.00
2023-02-11T00:38:55.404Z,384.00
2023-02-11T00:39:05.396Z,385.00
2023-02-11T00:39:15.421Z,385.00
2023-02-11T00:39:25.418Z,385.00
2023-02-11T00:39:35.434Z,384.00
2023-02-11T00:39:45.472Z,383.00
2023-02-11T00:39:55.438Z,384.00
2023-02-11T00:40:06.839Z,384.00
2023-02-11T00:40:15.431Z,385.00
2023-02-11T00:40:25.637Z,385.00
2023-02-11T00:40:35.595Z,385.00
2023-02-11T00:40:45.641Z,385.00
2023-02-11T00:40:55.605Z,385.00
2023-02-11T00:41:05.683Z,386.00
2023-02-11T00:41:15.589Z,386.00
2023-02-11T00:41:25.589Z,386.00
2023-02-11T00:41:35.607Z,385.00
2023-02-11T00:41:45.605Z,386.00
2023-02-11T00:41:55.602Z,387.00
2023-02-11T00:42:05.599Z,388.00
2023-02-11T00:42:15.616Z,386.00
2023-02-11T00:42:25.609Z,386.00
2023-02-11T00:42:35.607Z,387.00
2023-02-11T00:42:45.603Z,388.00
2023-02-11T00:42:55.606Z,388.00
2023-02-11T00:43:05.599Z,390.00
2023-02-11T00:43:15.588Z,390.00
2023-02-11T00:43:25.599Z,391.00
2023-02-11T00:43:35.612Z,390.00
2023-02-11T00:43:45.610Z,390.00
2023-02-11T00:43:55.614Z,390.00
2023-02-11T00:44:05.593Z,390.00
2023-02-11T00:44:15.606Z,389.00
2023-02-11T00:44:25.629Z,389.00
2023-02-11T00:44:35.611Z,388.00
2023-02-11T00:44:45.595Z,388.00
2023-02-11T00:44:55.597Z,388.00
2023-02-11T00:45:05.631Z,389.00
2023-02-11T00:45:15.619Z,389.00
2023-02-11T00:45:25.577Z,390.00
2023-02-11T00:45:35.597Z,391.00
2023-02-11T00:45:45.618Z,392.00
2023-02-11T00:45:55.643Z,394.00
2023-02-11T00:46:05.625Z,393.00
2023-02-11T00:46:15.688Z,394.00
2023-02-11T00:46:25.718Z,394.00
2023-02-11T00:46:35.694Z,395.00
2023-02-11T00:46:45.705Z,396.00
2023-02-11T00:46:55.662Z,396.00
2023-02-11T00:47:05.665Z,396.00
2023-02-11T00:47:15.652Z,396.00
2023-02-11T00:47:25.686Z,395.00
2023-02-11T00:47:35.672Z,394.00
2023-02-11T00:47:45.678Z,393.00
2023-02-11T00:47:55.720Z,393.00
2023-02-11T00:48:05.713Z,393.00
2023-02-11T00:48:15.689Z,393.00
2023-02-11T00:48:25.744Z,392.00
2023-02-11T00:48:35.734Z,391.00
2023-02-11T00:48:45.765Z,392.00
2023-02-11T00:48:55.762Z,392.00
2023-02-11T00:49:05.752Z,394.00
2023-02-11T00:49:15.768Z,395.00
2023-02-11T00:49:25.792Z,394.00
2023-02-11T00:49:35.780Z,393.00
2023-02-11T00:49:45.771Z,393.00
2023-02-11T00:49:55.814Z,393.00
2023-02-11T00:50:05.791Z,392.00
2023-02-11T00:50:15.819Z,391.00
2023-02-11T00:50:25.832Z,391.00
2023-02-11T00:50:35.857Z,392.00
2023-02-11T00:50:45.844Z,391.00
2023-02-11T00:50:55.975Z,390.00
2023-02-11T00:51:05.967Z,389.00
2023-02-11T00:51:16.010Z,387.00
2023-02-11T00:51:25.960Z,388.00
2023-02-11T00:51:35.999Z,388.00
2023-02-11T00:51:45.973Z,387.00
2023-02-11T00:51:55.949Z,387.00
2023-02-11T00:52:05.957Z,386.00
2023-02-11T00:52:15.988Z,386.00
2023-02-11T00:52:25.947Z,386.00
2023-02-11T00:52:35.974Z,386.00
2023-02-11T00:52:45.961Z,387.00
2023-02-11T00:52:55.948Z,387.00
2023-02-11T00:53:05.971Z,387.00
2023-02-11T00:53:15.966Z,386.00
2023-02-11T00:53:25.977Z,386.00
2023-02-11T00:53:35.971Z,386.00
2023-02-11T00:53:46.006Z,386.00
2023-02-11T00:53:56.012Z,386.00
2023-02-11T00:54:06.000Z,386.00
2023-02-11T00:54:16.002Z,386.00
2023-02-11T00:54:27.859Z,388.00
2023-02-11T00:54:36.043Z,388.00
2023-02-11T00:54:46.032Z,389.00
2023-02-11T00:54:56.063Z,390.00
2023-02-11T00:55:06.026Z,390.00
2023-02-11T00:55:16.037Z,389.00
2023-02-11T00:55:26.001Z,389.00
2023-02-11T00:55:36.035Z,388.00
2023-02-11T00:55:46.019Z,387.00
2023-02-11T00:55:56.013Z,388.00
2023-02-11T00:56:06.043Z,388.00
2023-02-11T00:56:16.013Z,387.00
2023-02-11T00:56:26.075Z,387.00
2023-02-11T00:56:36.011Z,387.00
2023-02-11T00:56:46.020Z,388.00
2023-02-11T00:56:56.027Z,387.00
2023-02-11T00:57:06.019Z,388.00
2023-02-11T00:57:16.012Z,388.00
2023-02-11T00:57:26.005Z,389.00
2023-02-11T00:57:36.012Z,389.00
2023-02-11T00:57:46.038Z,388.00
2023-02-11T00:57:56.042Z,388.00
2023-02-11T00:58:06.022Z,387.00
2023-02-11T00:58:16.017Z,388.00
2023-02-11T00:58:26.015Z,387.00
2023-02-11T00:58:36.018Z,387.00
2023-02-11T00:58:46.012Z,388.00
2023-02-11T00:58:56.022Z,389.00
2023-02-11T00:59:06.019Z,388.00
2023-02-11T00:59:16.025Z,389.00
2023-02-11T00:59:26.042Z,389.00
2023-02-11T00:59:36.027Z,388.00
2023-02-11T00:59:46.008Z,387.00
2023-02-11T00:59:56.001Z,386.00
2023-02-11T01:00:06.027Z,387.00
2023-02-11T01:00:16.024Z,387.00
2023-02-11T01:00:26.013Z,387.00
2023-02-11T01:00:36.025Z,387.00
2023-02-11T01:00:46.013Z,386.00
2023-02-11T01:00:56.032Z,388.00
2023-02-11T01:01:06.070Z,388.00
2023-02-11T01:01:16.089Z,388.00
2023-02-11T01:01:26.050Z,388.00
2023-02-11T01:01:36.132Z,387.00
2023-02-11T01:01:46.074Z,386.00
2023-02-11T01:01:56.018Z,387.00
2023-02-11T01:02:06.013Z,386.00
2023-02-11T01:02:16.013Z,385.00
2023-02-11T01:02:26.017Z,384.00
2023-02-11T01:02:35.994Z,386.00
2023-02-11T01:02:46.003Z,384.00
2023-02-11T01:02:56.016Z,384.00
2023-02-11T01:03:05.996Z,386.00
2023-02-11T01:03:15.995Z,385.00
2023-02-11T01:03:26.001Z,385.00
2023-02-11T01:03:35.991Z,385.00
2023-02-11T01:03:46.016Z,386.00
2023-02-11T01:03:56.005Z,385.00
2023-02-11T01:04:05.987Z,384.00
2023-02-11T01:04:15.991Z,383.00
2023-02-11T01:04:25.995Z,381.00
2023-02-11T01:04:35.999Z,382.00
2023-02-11T01:04:45.993Z,382.00
2023-02-11T01:04:56.077Z,383.00
2023-02-11T01:05:06.023Z,383.00
2023-02-11T01:05:16.044Z,383.00
2023-02-11T01:05:26.033Z,384.00
2023-02-11T01:05:36.023Z,385.00
2023-02-11T01:05:46.010Z,385.00
2023-02-11T01:05:55.992Z,385.00
2023-02-11T01:06:05.995Z,385.00
2023-02-11T01:06:16.003Z,385.00
2023-02-11T01:06:26.019Z,384.00
2023-02-11T01:06:36.003Z,384.00
2023-02-11T01:06:46.047Z,384.00
2023-02-11T01:06:56.006Z,385.00
2023-02-11T01:07:06.000Z,385.00
2023-02-11T01:07:16.013Z,386.00
2023-02-11T01:07:26.002Z,385.00
2023-02-11T01:07:36.003Z,386.00
2023-02-11T01:07:45.994Z,386.00
2023-02-11T01:07:55.998Z,385.00
2023-02-11T01:08:06.014Z,385.00
2023-02-11T01:08:16.001Z,385.00
2023-02-11T01:08:26.009Z,386.00
2023-02-11T01:08:35.999Z,386.00
2023-02-11T01:08:45.982Z,385.00
2023-02-11T01:08:55.978Z,385.00
2023-02-11T01:09:05.967Z,385.00
2023-02-11T01:09:15.985Z,385.00
2023-02-11T01:09:26.005Z,384.00
2023-02-11T01:09:35.976Z,384.00
2023-02-11T01:09:45.985Z,384.00
2023-02-11T01:09:55.997Z,382.00
2023-02-11T01:10:05.990Z,383.00
2023-02-11T01:10:16.015Z,383.00
2023-02-11T01:10:26.008Z,384.00
2023-02-11T01:10:36.000Z,384.00
2023-02-11T01:10:46.024Z,385.00
2023-02-11T01:10:56.017Z,387.00
2023-02-11T01:11:06.019Z,386.00
2023-02-11T01:11:16.042Z,386.00
2023-02-11T01:11:26.038Z,386.00
2023-02-11T01:11:36.033Z,386.00
2023-02-11T01:11:46.189Z,386.00
2023-02-11T01:11:56.083Z,386.00
2023-02-11T01:12:06.056Z,385.00
2023-02-11T01:12:16.107Z,386.00
2023-02-11T01:12:26.081Z,386.00
2023-02-11T01:12:36.634Z,385.00
2023-02-11T01:12:46.342Z,384.00
2023-02-11T01:12:56.332Z,383.00
2023-02-11T01:13:06.366Z,382.00
2023-02-11T01:13:16.365Z,382.00
2023-02-11T01:13:26.351Z,383.00
2023-02-11T01:13:36.334Z,384.00
2023-02-11T01:13:46.356Z,384.00
2023-02-11T01:13:56.343Z,384.00
2023-02-11T01:14:06.338Z,384.00
2023-02-11T01:14:16.370Z,384.00
2023-02-11T01:14:26.355Z,383.00
2023-02-11T01:14:36.339Z,384.00
2023-02-11T01:14:46.325Z,385.00
2023-02-11T01:14:56.312Z,384.00
2023-02-11T01:15:06.343Z,385.00
2023-02-11T01:15:16.370Z,386.00
2023-02-11T01:15:26.312Z,387.00
2023-02-11T01:15:36.405Z,387.00
2023-02-11T01:15:46.361Z,387.00
2023-02-11T01:15:56.395Z,387.00
2023-02-11T01:16:06.387Z,388.00
2023-02-11T01:16:16.349Z,388.00
2023-02-11T01:16:26.408Z,387.00
2023-02-11T01:16:36.345Z,386.00
2023-02-11T01:16:46.420Z,385.00
2023-02-11T01:16:56.322Z,385.00
2023-02-11T01:17:06.329Z,385.00
2023-02-11T01:17:16.328Z,384.00
2023-02-11T01:17:26.307Z,384.00
2023-02-11T01:17:36.348Z,384.00
2023-02-11T01:17:46.316Z,383.00
2023-02-11T01:17:56.323Z,382.00
2023-02-11T01:18:06.335Z,383.00
2023-02-11T01:18:16.337Z,382.00
2023-02-11T01:18:26.331Z,382.00
2023-02-11T01:18:36.330Z,382.00
2023-02-11T01:18:46.363Z,383.00
2023-02-11T01:18:56.348Z,383.00
2023-02-11T01:19:06.352Z,383.00
2023-02-11T01:19:16.364Z,384.00
2023-02-11T01:19:26.365Z,385.00
2023-02-11T01:19:36.370Z,385.00
2023-02-11T01:19:46.386Z,384.00
2023-02-11T01:19:56.377Z,384.00
2023-02-11T01:20:06.385Z,384.00
2023-02-11T01:20:16.406Z,384.00
2023-02-11T01:20:26.404Z,384.00
2023-02-11T01:20:36.399Z,385.00
2023-02-11T01:20:46.446Z,385.00
2023-02-11T01:20:56.454Z,385.00
2023-02-11T01:21:06.421Z,385.00
2023-02-11T01:21:16.462Z,384.00
2023-02-11T01:21:26.463Z,385.00
2023-02-11T01:21:36.462Z,386.00
2023-02-11T01:21:46.597Z,385.00
2023-02-11T01:21:56.485Z,385.00
2023-02-11T01:22:06.498Z,386.00
2023-02-11T01:22:16.507Z,386.00
2023-02-11T01:22:26.527Z,387.00
2023-02-11T01:22:36.523Z,387.00
2023-02-11T01:22:46.562Z,387.00
2023-02-11T01:22:56.549Z,388.00
2023-02-11T01:23:06.539Z,388.00
2023-02-11T01:23:16.557Z,389.00
2023-02-11T01:23:26.562Z,390.00
2023-02-11T01:23:36.563Z,391.00
2023-02-11T01:23:46.590Z,391.00
2023-02-11T01:23:56.585Z,391.00
2023-02-11T01:24:06.588Z,390.00
2023-02-11T01:24:16.621Z,390.00
2023-02-11T01:24:26.601Z,391.00
2023-02-11T01:24:36.608Z,392.00
2023-02-11T01:24:46.646Z,392.00
2023-02-11T01:24:56.627Z,394.00
2023-02-11T01:25:06.635Z,394.00
2023-02-11T01:25:16.669Z,395.00
2023-02-11T01:25:26.662Z,393.00
2023-02-11T01:25:36.665Z,391.00
2023-02-11T01:25:46.711Z,390.00
2023-02-11T01:25:56.679Z,392.00
2023-02-11T01:26:06.671Z,392.00
2023-02-11T01:26:16.713Z,393.00
2023-02-11T01:26:26.705Z,393.00
2023-02-11T01:26:36.702Z,394.00
2023-02-11T01:26:46.803Z,394.00
2023-02-11T01:26:56.701Z,393.00
2023-02-11T01:27:06.732Z,392.00
2023-02-11T01:27:16.768Z,391.00
2023-02-11T01:27:26.767Z,389.00
2023-02-11T01:27:36.776Z,388.00
2023-02-11T01:27:46.795Z,387.00
2023-02-11T01:27:56.821Z,387.00
2023-02-11T01:28:06.850Z,387.00
2023-02-11T01:28:16.870Z,388.00
2023-02-11T01:28:26.876Z,387.00
2023-02-11T01:28:36.849Z,388.00
2023-02-11T01:28:46.870Z,388.00
2023-02-11T01:28:56.843Z,388.00
2023-02-11T01:29:06.844Z,387.00
2023-02-11T01:29:16.878Z,387.00
2023-02-11T01:29:26.864Z,388.00
2023-02-11T01:29:36.861Z,387.00
2023-02-11T01:29:46.982Z,386.00
2023-02-11T01:29:56.981Z,386.00
2023-02-11T01:30:06.968Z,385.00
2023-02-11T01:30:16.960Z,384.00
2023-02-11T01:30:26.958Z,384.00
2023-02-11T01:30:36.961Z,384.00
2023-02-11T01:30:47.049Z,385.00
2023-02-11T01:30:56.996Z,385.00
2023-02-11T01:31:07.018Z,386.00
2023-02-11T01:31:17.006Z,386.00
2023-02-11T01:31:27.013Z,386.00
2023-02-11T01:31:37.033Z,386.00
2023-02-11T01:31:47.056Z,385.00
2023-02-11T01:31:57.001Z,387.00
2023-02-11T01:32:07.006Z,386.00
2023-02-11T01:32:17.035Z,386.00
2023-02-11T01:32:27.036Z,387.00
2023-02-11T01:32:36.992Z,387.00
2023-02-11T01:32:47.044Z,386.00
2023-02-11T01:32:57.040Z,386.00
2023-02-11T01:33:07.049Z,386.00
2023-02-11T01:33:17.075Z,389.00
2023-02-11T01:33:27.065Z,388.00
2023-02-11T01:33:37.074Z,388.00
2023-02-11T01:33:47.085Z,387.00
2023-02-11T01:33:57.090Z,387.00
2023-02-11T01:34:07.068Z,388.00
2023-02-11T01:34:17.104Z,388.00
2023-02-11T01:34:27.104Z,386.00
2023-02-11T01:34:37.110Z,387.00
2023-02-11T01:34:47.146Z,387.00
2023-02-11T01:34:57.145Z,388.00
2023-02-11T01:35:07.147Z,388.00
2023-02-11T01:35:17.157Z,388.00
2023-02-11T01:35:27.158Z,389.00
2023-02-11T01:35:37.164Z,388.00
2023-02-11T01:35:47.182Z,387.00
2023-02-11T01:35:57.195Z,387.00
2023-02-11T01:36:07.185Z,387.00
2023-02-11T01:36:17.218Z,387.00
2023-02-11T01:36:27.311Z,386.00
2023-02-11T01:36:37.228Z,387.00
2023-02-11T01:36:47.303Z,386.00
2023-02-11T01:36:57.232Z,387.00
2023-02-11T01:37:07.280Z,386.00
2023-02-11T01:37:17.284Z,387.00
2023-02-11T01:37:27.247Z,388.00
2023-02-11T01:37:37.265Z,387.00
2023-02-11T01:37:47.281Z,388.00
2023-02-11T01:37:57.442Z,387.00
2023-02-11T01:38:07.282Z,387.00
2023-02-11T01:38:17.340Z,388.00
2023-02-11T01:38:27.337Z,388.00
2023-02-11T01:38:37.313Z,388.00
2023-02-11T01:38:47.346Z,386.00
2023-02-11T01:38:57.376Z,386.00
2023-02-11T01:39:07.355Z,385.00
2023-02-11T01:39:17.496Z,385.00
2023-02-11T01:39:27.480Z,385.00
2023-02-11T01:39:37.464Z,385.00
2023-02-11T01:39:47.463Z,384.00
2023-02-11T01:39:57.493Z,386.00
2023-02-11T01:40:07.453Z,385.00
2023-02-11T01:40:17.523Z,384.00
2023-02-11T01:40:27.469Z,383.00
2023-02-11T01:40:37.480Z,385.00
2023-02-11T01:40:47.462Z,383.00
2023-02-11T01:40:57.473Z,384.00
2023-02-11T01:41:07.474Z,384.00
2023-02-11T01:41:17.467Z,384.00
2023-02-11T01:41:27.472Z,384.00
2023-02-11T01:41:37.481Z,384.00
2023-02-11T01:41:47.534Z,384.00
2023-02-11T01:41:57.500Z,385.00
2023-02-11T01:42:07.488Z,384.00
2023-02-11T01:42:17.520Z,384.00
2023-02-11T01:42:27.502Z,384.00
2023-02-11T01:42:37.515Z,383.00
2023-02-11T01:42:49.438Z,383.00
2023-02-11T01:42:57.596Z,385.00
2023-02-11T01:43:07.572Z,385.00
2023-02-11T01:43:17.581Z,384.00
2023-02-11T01:43:27.610Z,384.00
2023-02-11T01:43:37.555Z,383.00
2023-02-11T01:43:47.579Z,382.00
2023-02-11T01:43:57.583Z,382.00
2023-02-11T01:44:07.552Z,382.00
2023-02-11T01:44:17.560Z,381.00
2023-02-11T01:44:27.577Z,382.00
2023-02-11T01:44:37.560Z,383.00
2023-02-11T01:44:47.591Z,383.00
2023-02-11T01:44:57.584Z,381.00
2023-02-11T01:45:07.572Z,381.00
2023-02-11T01:45:17.569Z,382.00
2023-02-11T01:45:27.597Z,381.00
2023-02-11T01:45:37.567Z,380.00
2023-02-11T01:45:47.602Z,381.00
2023-02-11T01:45:57.570Z,381.00
2023-02-11T01:46:07.608Z,382.00
2023-02-11T01:46:17.589Z,383.00
2023-02-11T01:46:27.619Z,384.00
2023-02-11T01:46:37.658Z,384.00
2023-02-11T01:46:47.632Z,384.00
2023-02-11T01:46:57.627Z,383.00
2023-02-11T01:47:07.554Z,383.00
2023-02-11T01:47:17.562Z,384.00
2023-02-11T01:47:27.556Z,384.00
2023-02-11T01:47:37.564Z,384.00
2023-02-11T01:47:47.578Z,384.00
2023-02-11T01:47:57.574Z,386.00
2023-02-11T01:48:07.564Z,386.00
2023-02-11T01:48:17.577Z,385.00
2023-02-11T01:48:27.580Z,385.00
2023-02-11T01:48:37.556Z,384.00
2023-02-11T01:48:47.601Z,384.00
2023-02-11T01:48:57.664Z,384.00
2023-02-11T01:49:07.618Z,383.00
2023-02-11T01:49:17.667Z,384.00
2023-02-11T01:49:27.644Z,383.00
2023-02-11T01:49:37.647Z,383.00
2023-02-11T01:49:47.607Z,382.00
2023-02-11T01:49:57.643Z,382.00
2023-02-11T01:50:07.637Z,382.00
2023-02-11T01:50:17.636Z,383.00
2023-02-11T01:50:27.686Z,382.00
2023-02-11T01:50:37.664Z,383.00
2023-02-11T01:50:47.676Z,383.00
2023-02-11T01:50:57.680Z,384.00
2023-02-11T01:51:07.697Z,385.00
2023-02-11T01:51:17.692Z,385.00
2023-02-11T01:51:27.704Z,385.00
2023-02-11T01:51:37.705Z,387.00
2023-02-11T01:51:47.704Z,388.00
2023-02-11T01:51:57.799Z,389.00
2023-02-11T01:52:07.765Z,389.00
2023-02-11T01:52:17.742Z,389.00
2023-02-11T01:52:27.750Z,389.00
2023-02-11T01:52:37.749Z,389.00
2023-02-11T01:52:47.755Z,391.00
2023-02-11T01:52:57.795Z,391.00
2023-02-11T01:53:07.784Z,391.00
2023-02-11T01:53:17.795Z,390.00
2023-02-11T01:53:27.814Z,389.00
2023-02-11T01:53:37.810Z,390.00
2023-02-11T01:53:47.855Z,389.00
2023-02-11T01:53:57.853Z,390.00
2023-02-11T01:54:07.819Z,390.00
2023-02-11T01:54:17.808Z,390.00
2023-02-11T01:54:27.884Z,391.00
2023-02-11T01:54:37.884Z,391.00
2023-02-11T01:54:47.866Z,391.00
2023-02-11T01:54:57.874Z,390.00
2023-02-11T01:55:07.869Z,390.00
2023-02-11T01:55:17.886Z,389.00
2023-02-11T01:55:27.909Z,389.00
2023-02-11T01:55:37.886Z,390.00
2023-02-11T01:55:48.331Z,389.00
2023-02-11T01:55:57.905Z,388.00
2023-02-11T01:56:07.901Z,388.00
2023-02-11T01:56:17.904Z,388.00
2023-02-11T01:56:27.903Z,389.00
2023-02-11T01:56:37.927Z,389.00
2023-02-11T01:56:47.899Z,389.00
2023-02-11T01:56:57.973Z,388.00
2023-02-11T01:57:07.911Z,387.00
2023-02-11T01:57:17.933Z,387.00
2023-02-11T01:57:27.933Z,386.00
2023-02-11T01:57:37.920Z,387.00
2023-02-11T01:57:47.918Z,387.00
2023-02-11T01:57:57.904Z,386.00
2023-02-11T01:58:07.910Z,387.00
2023-02-11T01:58:17.913Z,386.00
2023-02-11T01:58:27.901Z,386.00
2023-02-11T01:58:37.900Z,385.00
2023-02-11T01:58:47.888Z,384.00
2023-02-11T01:58:57.902Z,384.00
2023-02-11T01:59:07.909Z,383.00
2023-02-11T01:59:17.892Z,383.00
2023-02-11T01:59:27.906Z,383.00
2023-02-11T01:59:37.912Z,384.00
2023-02-11T01:59:47.896Z,385.00
2023-02-11T01:59:57.893Z,386.00
2023-02-11T02:00:07.888Z,385.00
2023-02-11T02:00:17.886Z,385.00
2023-02-11T02:00:27.909Z,385.00
2023-02-11T02:00:37.904Z,386.00
2023-02-11T02:00:47.872Z,385.00
2023-02-11T02:00:57.884Z,385.00
2023-02-11T02:01:07.882Z,386.00
2023-02-11T02:01:17.911Z,385.00
2023-02-11T02:01:27.913Z,386.00
2023-02-11T02:01:37.907Z,386.00
2023-02-11T02:01:47.925Z,385.00
2023-02-11T02:01:58.000Z,383.00
2023-02-11T02:02:07.948Z,383.00
2023-02-11T02:02:17.885Z,384.00
2023-02-11T02:02:27.872Z,385.00
2023-02-11T02:02:37.894Z,384.00
2023-02-11T02:02:47.884Z,385.00
2023-02-11T02:02:57.902Z,385.00
2023-02-11T02:03:07.890Z,386.00
2023-02-11T02:03:17.960Z,386.00
2023-02-11T02:03:27.935Z,387.00
2023-02-11T02:03:37.936Z,387.00
2023-02-11T02:03:47.942Z,388.00
2023-02-11T02:03:57.933Z,388.00
2023-02-11T02:04:07.884Z,387.00
2023-02-11T02:04:17.882Z,387.00
2023-02-11T02:04:27.878Z,386.00
2023-02-11T02:04:37.893Z,385.00
2023-02-11T02:04:47.885Z,385.00